createdAt,value
2018-07-31T12:31:45.154Z,34.79
2018-07-31T12:32:45.118Z,35.09
2018-07-31T12:33:45.012Z,35.34
2018-07-31T12:34:44.933Z,35.45
2018-07-31T12:35:44.848Z,35.58
2018-07-31T12:36:44.753Z,35.79
2018-07-31T12:38:44.534Z,36.18
2018-07-31T12:39:44.410Z,36.29
2018-07-31T12:40:44.287Z,36.43
2018-07-31T12:41:44.149Z,36.65
2018-07-31T12:42:44.019Z,36.83
2018-07-31T12:43:43.901Z,36.88
2018-07-31T12:44:43.750Z,36.90
2018-07-31T12:45:43.611Z,36.91
2018-07-31T12:46:43.572Z,36.88
2018-07-31T12:47:43.333Z,36.77
2018-07-31T12:48:43.247Z,36.74
2018-07-31T12:49:43.039Z,36.79
2018-07-31T12:50:42.899Z,36.84
2018-07-31T12:51:42.757Z,36.86
2018-07-31T12:52:42.611Z,36.90
2018-07-31T12:53:42.464Z,36.97
2018-07-31T12:54:42.318Z,36.99
2018-07-31T12:55:42.170Z,36.95
2018-07-31T12:56:42.028Z,36.95
2018-07-31T12:57:41.884Z,37.02
2018-07-31T12:58:41.741Z,37.09
2018-07-31T12:59:41.595Z,37.15
2018-07-31T13:00:41.450Z,37.15
2018-07-31T13:01:41.305Z,37.08
2018-07-31T13:02:41.166Z,37.02
2018-07-31T13:03:41.025Z,36.97
2018-07-31T13:04:40.879Z,36.90
2018-07-31T13:05:40.736Z,36.84
2018-07-31T13:06:40.652Z,36.83
2018-07-31T13:07:40.459Z,36.79
2018-07-31T13:08:40.328Z,36.81
2018-07-31T13:09:40.184Z,36.88
2018-07-31T13:10:40.041Z,37.00
2018-07-31T13:11:39.901Z,37.11
2018-07-31T13:12:39.761Z,37.25
2018-07-31T13:13:39.628Z,37.41
2018-07-31T13:14:39.486Z,37.43
2018-07-31T13:15:39.352Z,37.38
2018-07-31T13:16:39.218Z,37.34
2018-07-31T13:17:39.081Z,37.31
2018-07-31T13:18:38.942Z,37.33
2018-07-31T13:19:38.802Z,37.33
2018-07-31T13:20:38.662Z,37.34
2018-07-31T13:21:38.524Z,37.34
2018-07-31T13:22:38.383Z,37.38
2018-07-31T13:23:38.238Z,37.50
2018-07-31T13:24:38.095Z,37.65
2018-07-31T13:25:37.950Z,37.75
2018-07-31T13:26:37.804Z,37.88
2018-07-31T13:27:37.657Z,37.97
2018-07-31T13:28:37.509Z,38.09
2018-07-31T13:29:37.363Z,38.27
2018-07-31T13:30:37.260Z,38.43
2018-07-31T13:31:37.069Z,38.54
2018-07-31T13:32:36.943Z,38.58
2018-07-31T13:33:36.799Z,38.45
2018-07-31T13:34:36.615Z,38.38
2018-07-31T13:35:36.463Z,38.45
2018-07-31T13:36:36.311Z,38.45
2018-07-31T13:37:36.162Z,38.34
2018-07-31T13:38:36.015Z,38.31
2018-07-31T13:39:35.860Z,38.38
2018-07-31T13:40:35.711Z,38.50
2018-07-31T13:41:35.563Z,38.54
2018-07-31T13:42:35.414Z,38.45
2018-07-31T13:43:35.274Z,38.31
2018-07-31T13:44:35.115Z,38.16
2018-07-31T13:45:34.963Z,38.00
2018-07-31T13:46:34.815Z,37.81
2018-07-31T13:47:34.668Z,37.70
2018-07-31T13:48:34.522Z,37.65
2018-07-31T13:49:34.413Z,37.58
2018-07-31T13:50:34.226Z,37.52
2018-07-31T13:51:34.079Z,37.58
2018-07-31T13:52:33.934Z,37.66
2018-07-31T13:53:33.783Z,37.70
2018-07-31T13:54:33.638Z,37.63
2018-07-31T13:55:33.525Z,37.61
2018-07-31T13:56:33.345Z,37.84
2018-07-31T13:57:33.267Z,38.16
2018-07-31T13:58:33.122Z,38.43
2018-07-31T13:59:32.980Z,38.52
2018-07-31T14:00:32.840Z,38.50
2018-07-31T14:01:32.718Z,38.43
2018-07-31T14:02:32.556Z,38.38
2018-07-31T14:03:32.410Z,38.41
2018-07-31T14:04:32.266Z,38.47
2018-07-31T14:05:32.123Z,38.50
2018-07-31T14:06:31.982Z,38.38
2018-07-31T14:07:31.839Z,38.15
2018-07-31T14:08:31.698Z,38.04
2018-07-31T14:09:31.554Z,38.02
2018-07-31T14:10:31.404Z,38.00
2018-07-31T14:11:31.256Z,38.04
2018-07-31T14:12:31.127Z,38.16
2018-07-31T14:13:30.961Z,38.33
2018-07-31T14:14:30.813Z,38.47
2018-07-31T14:15:30.668Z,38.65
2018-07-31T14:16:30.521Z,38.86
2018-07-31T14:17:30.373Z,39.08
2018-07-31T14:18:30.223Z,39.22
2018-07-31T14:19:30.073Z,39.29
2018-07-31T14:20:29.934Z,39.34
2018-07-31T14:21:29.772Z,39.38
2018-07-31T14:22:29.617Z,39.41
2018-07-31T14:23:29.463Z,39.52
2018-07-31T14:24:29.382Z,39.56
2018-07-31T14:25:29.150Z,39.56
2018-07-31T14:26:28.994Z,39.56
2018-07-31T14:27:28.838Z,39.54
2018-07-31T14:28:28.684Z,39.59
2018-07-31T14:29:28.528Z,39.63
2018-07-31T14:30:28.413Z,39.58
2018-07-31T14:31:28.214Z,39.43
2018-07-31T14:32:28.055Z,39.25
2018-07-31T14:33:27.927Z,39.11
2018-07-31T14:34:27.742Z,39.08
2018-07-31T14:35:27.592Z,39.18
2018-07-31T14:36:27.436Z,39.36
2018-07-31T14:37:27.277Z,39.59
2018-07-31T14:38:27.126Z,39.75
2018-07-31T14:39:26.964Z,39.83
2018-07-31T14:40:26.804Z,39.86
2018-07-31T14:41:26.644Z,39.88
2018-07-31T14:42:26.484Z,39.90
2018-07-31T14:43:26.332Z,39.88
2018-07-31T14:44:26.172Z,39.86
2018-07-31T14:45:26.008Z,39.93
2018-07-31T14:46:25.853Z,40.04
2018-07-31T14:47:25.690Z,40.11
2018-07-31T14:48:25.559Z,40.13
2018-07-31T14:49:25.367Z,40.11
2018-07-31T14:50:25.199Z,40.13
2018-07-31T14:51:25.038Z,40.08
2018-07-31T14:52:24.871Z,39.84
2018-07-31T14:53:24.709Z,39.50
2018-07-31T14:54:24.546Z,39.11
2018-07-31T14:55:24.381Z,38.70
2018-07-31T14:56:24.222Z,38.34
2018-07-31T14:57:24.069Z,38.08
2018-07-31T14:58:23.915Z,37.84
2018-07-31T14:59:23.760Z,37.61
2018-07-31T15:00:23.606Z,37.47
2018-07-31T15:01:23.455Z,37.45
2018-07-31T15:02:23.300Z,37.52
2018-07-31T15:03:23.152Z,37.66
2018-07-31T15:04:23.006Z,37.75
2018-07-31T15:05:22.866Z,37.79
2018-07-31T15:06:22.721Z,37.74
2018-07-31T15:07:22.584Z,37.63
2018-07-31T15:08:22.441Z,37.54
2018-07-31T15:09:22.302Z,37.50
2018-07-31T15:10:22.162Z,37.47
2018-07-31T15:11:22.107Z,37.49
2018-07-31T15:12:21.885Z,37.50
2018-07-31T15:13:21.744Z,37.54
2018-07-31T15:14:21.600Z,37.59
2018-07-31T15:15:21.458Z,37.58
2018-07-31T15:16:21.318Z,37.49
2018-07-31T15:17:21.172Z,37.43
2018-07-31T15:18:21.028Z,37.40
2018-07-31T15:19:20.888Z,37.36
2018-07-31T15:20:20.746Z,37.24
2018-07-31T15:21:20.606Z,37.09
2018-07-31T15:22:20.469Z,36.97
2018-07-31T15:23:20.334Z,36.86
2018-07-31T15:24:20.195Z,36.75
2018-07-31T15:25:20.064Z,36.61
2018-07-31T15:26:19.931Z,36.50
2018-07-31T15:27:19.802Z,36.40
2018-07-31T15:28:19.677Z,36.31
2018-07-31T15:29:19.546Z,36.20
2018-07-31T15:30:19.421Z,36.13
2018-07-31T15:31:19.301Z,36.15
2018-07-31T15:32:19.180Z,36.25
2018-07-31T15:33:19.053Z,36.38
2018-07-31T15:34:18.954Z,36.49
2018-07-31T15:35:18.842Z,36.58
2018-07-31T15:36:18.681Z,36.70
2018-07-31T15:37:18.554Z,36.81
2018-07-31T15:38:18.431Z,36.86
2018-07-31T15:39:18.298Z,36.86
2018-07-31T15:40:18.173Z,36.83
2018-07-31T15:41:18.052Z,36.77
2018-07-31T15:42:17.928Z,36.79
2018-07-31T15:43:17.802Z,36.90
2018-07-31T15:44:17.676Z,36.97
2018-07-31T15:45:17.549Z,36.97
2018-07-31T15:46:17.443Z,37.00
2018-07-31T15:47:17.299Z,37.13
2018-07-31T15:48:17.162Z,37.36
2018-07-31T15:49:17.036Z,37.59
2018-07-31T15:50:16.903Z,37.75
2018-07-31T15:51:16.771Z,37.84
2018-07-31T15:52:16.633Z,37.95
2018-07-31T15:53:16.494Z,38.06
2018-07-31T15:54:16.360Z,38.13
2018-07-31T15:55:16.223Z,38.00
2018-07-31T15:56:16.089Z,37.75
2018-07-31T15:57:15.957Z,37.61
2018-07-31T15:58:15.826Z,37.58
2018-07-31T15:59:15.691Z,37.59
2018-07-31T16:00:15.590Z,37.59
2018-07-31T16:01:15.414Z,37.63
2018-07-31T16:02:15.276Z,37.65
2018-07-31T16:03:15.137Z,37.66
2018-07-31T16:04:14.997Z,37.72
2018-07-31T16:05:14.864Z,37.72
2018-07-31T16:06:14.728Z,37.70
2018-07-31T16:07:14.588Z,37.65
2018-07-31T16:08:14.454Z,37.50
2018-07-31T16:09:14.318Z,37.27
2018-07-31T16:10:14.186Z,36.95
2018-07-31T16:11:14.058Z,36.54
2018-07-31T16:12:13.927Z,36.18
2018-07-31T16:13:13.801Z,35.90
2018-07-31T16:14:13.676Z,35.68
2018-07-31T16:15:13.551Z,35.52
2018-07-31T16:16:13.430Z,35.34
2018-07-31T16:17:13.369Z,35.15
2018-07-31T16:18:13.180Z,34.97
2018-07-31T16:19:13.064Z,34.81
2018-07-31T16:20:12.947Z,34.68
2018-07-31T16:21:12.829Z,34.56
2018-07-31T16:22:12.701Z,34.43
2018-07-31T16:23:12.637Z,34.31
2018-07-31T16:24:12.477Z,34.25
2018-07-31T16:25:12.370Z,34.24
2018-07-31T16:26:12.261Z,34.25
2018-07-31T16:27:12.158Z,34.29
2018-07-31T16:28:12.053Z,34.31
2018-07-31T16:29:11.952Z,34.38
2018-07-31T16:30:11.848Z,34.47
2018-07-31T16:31:11.748Z,34.56
2018-07-31T16:32:11.638Z,34.61
2018-07-31T16:33:11.532Z,34.65
2018-07-31T16:34:11.421Z,34.68
2018-07-31T16:35:11.345Z,34.70
2018-07-31T16:36:11.210Z,34.68
2018-07-31T16:37:11.104Z,34.61
2018-07-31T16:38:11.003Z,34.52
2018-07-31T16:39:10.891Z,34.40
2018-07-31T16:40:10.787Z,34.31
2018-07-31T16:41:10.680Z,34.22
2018-07-31T16:42:10.574Z,34.13
2018-07-31T16:43:10.472Z,34.02
2018-07-31T16:44:10.375Z,33.93
2018-07-31T16:45:10.278Z,33.86
2018-07-31T16:46:10.218Z,33.81
2018-07-31T16:47:10.084Z,33.74
2018-07-31T16:48:09.986Z,33.68
2018-07-31T16:49:09.886Z,33.65
2018-07-31T16:50:09.792Z,33.61
2018-07-31T16:51:09.693Z,33.59
2018-07-31T16:52:09.596Z,33.56
2018-07-31T16:53:09.495Z,33.56
2018-07-31T16:54:09.399Z,33.56
2018-07-31T16:55:09.303Z,33.56
2018-07-31T16:56:09.209Z,33.56
2018-07-31T16:57:09.118Z,33.59
2018-07-31T16:58:09.027Z,33.63
2018-07-31T16:59:08.935Z,33.68
2018-07-31T17:00:08.843Z,33.74
2018-07-31T17:01:08.753Z,33.81
2018-07-31T17:02:08.659Z,33.90
2018-07-31T17:03:08.566Z,33.97
2018-07-31T17:04:08.471Z,34.02
2018-07-31T17:05:08.378Z,34.09
2018-07-31T17:06:08.281Z,34.15
2018-07-31T17:07:08.193Z,34.25
2018-07-31T17:08:08.093Z,34.34
2018-07-31T17:09:07.989Z,34.40
2018-07-31T17:10:07.889Z,34.45
2018-07-31T17:11:07.787Z,34.50
2018-07-31T17:12:07.689Z,34.52
2018-07-31T17:13:07.590Z,34.50
2018-07-31T17:14:07.490Z,34.47
2018-07-31T17:15:07.386Z,34.43
2018-07-31T17:16:07.291Z,34.38
2018-07-31T17:17:07.194Z,34.34
2018-07-31T17:18:07.093Z,34.36
2018-07-31T17:19:06.997Z,34.33
2018-07-31T17:20:06.903Z,34.27
2018-07-31T17:21:06.812Z,34.16
2018-07-31T17:22:06.721Z,34.09
2018-07-31T17:23:06.628Z,34.06
2018-07-31T17:24:06.535Z,34.04
2018-07-31T17:25:06.445Z,34.00
2018-07-31T17:26:06.361Z,33.95
2018-07-31T17:27:06.270Z,33.90
2018-07-31T17:28:06.183Z,33.83
2018-07-31T17:29:06.095Z,33.75
2018-07-31T17:30:06.011Z,33.72
2018-07-31T17:31:05.939Z,33.72
2018-07-31T17:32:05.853Z,33.72
2018-07-31T17:33:05.769Z,33.72
2018-07-31T17:34:05.683Z,33.70
2018-07-31T17:35:05.598Z,33.70
2018-07-31T17:36:05.540Z,33.66
2018-07-31T17:37:05.433Z,33.63
2018-07-31T17:38:05.347Z,33.61
2018-07-31T17:39:05.256Z,33.59
2018-07-31T17:40:05.167Z,33.59
2018-07-31T17:41:05.082Z,33.58
2018-07-31T17:42:04.990Z,33.56
2018-07-31T17:43:04.901Z,33.56
2018-07-31T17:44:04.849Z,33.56
2018-07-31T17:45:04.722Z,33.56
2018-07-31T17:46:04.637Z,33.52
2018-07-31T17:47:04.549Z,33.49
2018-07-31T17:48:04.465Z,33.47
2018-07-31T17:49:04.375Z,33.47
2018-07-31T17:50:04.287Z,33.45
2018-07-31T17:51:04.212Z,33.43
2018-07-31T17:52:04.115Z,33.43
2018-07-31T17:53:04.282Z,33.41
2018-07-31T17:54:03.950Z,33.40
2018-07-31T17:55:03.871Z,33.40
2018-07-31T17:56:03.783Z,33.38
2018-07-31T17:57:03.701Z,33.38
2018-07-31T17:58:03.611Z,33.38
2018-07-31T17:59:03.529Z,33.38
2018-07-31T18:00:03.447Z,33.36
2018-07-31T18:01:03.366Z,33.33
2018-07-31T18:02:03.283Z,33.31
2018-07-31T18:03:03.203Z,33.33
2018-07-31T18:04:03.120Z,33.33
2018-07-31T18:05:03.035Z,33.31
2018-07-31T18:06:02.957Z,33.29
2018-07-31T18:07:02.867Z,33.24
2018-07-31T18:08:02.783Z,33.16
2018-07-31T18:09:02.705Z,33.08
2018-07-31T18:10:02.627Z,33.00
2018-07-31T18:11:02.550Z,32.93
2018-07-31T18:12:02.470Z,32.86
2018-07-31T18:13:02.391Z,32.81
2018-07-31T18:14:02.349Z,32.75
2018-07-31T18:15:02.240Z,32.70
2018-07-31T18:16:02.157Z,32.65
2018-07-31T18:17:02.088Z,32.61
2018-07-31T18:18:02.013Z,32.54
2018-07-31T18:19:01.938Z,32.50
2018-07-31T18:20:01.868Z,32.43
2018-07-31T18:21:01.794Z,32.36
2018-07-31T18:22:01.723Z,32.31
2018-07-31T18:23:01.659Z,32.24
2018-07-31T18:24:01.595Z,32.16
2018-07-31T18:25:01.513Z,32.09
2018-07-31T18:26:01.441Z,32.04
2018-07-31T18:27:01.418Z,31.95
2018-07-31T18:28:01.339Z,31.88
2018-07-31T18:29:01.231Z,31.81
2018-07-31T18:30:01.161Z,31.73
2018-07-31T18:31:01.100Z,31.65
2018-07-31T18:32:01.032Z,31.60
2018-07-31T18:33:00.972Z,31.52
2018-07-31T18:34:00.906Z,31.45
2018-07-31T18:35:00.880Z,31.39
2018-07-31T18:36:00.776Z,31.34
2018-07-31T18:37:00.733Z,31.27
2018-07-31T18:38:00.644Z,31.20
2018-07-31T18:39:00.577Z,31.12
2018-07-31T18:40:00.513Z,31.07
2018-07-31T18:41:00.458Z,31.01
2018-07-31T18:42:00.391Z,30.95
2018-07-31T18:43:00.327Z,30.88
2018-07-31T18:44:00.262Z,30.84
2018-07-31T18:45:00.200Z,30.79
2018-07-31T18:46:00.139Z,30.72
2018-07-31T18:47:00.077Z,30.63
2018-07-31T19:01:15.296Z,28.78
2018-07-31T19:02:15.090Z,29.05
2018-07-31T19:03:15.025Z,29.27
2018-07-31T19:04:14.953Z,29.38
2018-07-31T19:05:14.877Z,29.39
2018-07-31T19:06:14.789Z,29.38
2018-07-31T19:07:14.701Z,29.39
2018-07-31T19:08:14.608Z,29.37
2018-07-31T19:09:14.513Z,29.29
2018-07-31T19:10:14.415Z,29.20
2018-07-31T19:11:14.315Z,29.12
2018-07-31T19:12:14.217Z,29.04
2018-07-31T19:13:14.193Z,29.00
2018-07-31T19:14:14.268Z,29.02
2018-07-31T19:15:13.920Z,29.05
2018-07-31T19:16:13.826Z,29.07
2018-07-31T19:17:13.723Z,29.04
2018-07-31T19:18:13.625Z,28.97
2018-07-31T19:19:13.527Z,28.89
2018-07-31T19:20:13.421Z,28.85
2018-07-31T19:21:13.317Z,28.81
2018-07-31T19:22:13.218Z,28.78
2018-07-31T19:23:13.117Z,28.73
2018-07-31T19:24:13.020Z,28.69
2018-07-31T19:25:12.920Z,28.60
2018-07-31T19:26:12.824Z,28.52
2018-07-31T19:27:12.726Z,28.43
2018-07-31T19:28:12.718Z,28.34
2018-07-31T19:29:12.529Z,28.30
2018-07-31T19:30:12.429Z,28.27
2018-07-31T19:31:12.332Z,28.21
2018-07-31T19:32:12.237Z,28.15
2018-07-31T19:33:12.149Z,28.07
2018-07-31T19:34:12.107Z,28.00
2018-07-31T19:35:11.957Z,27.95
2018-07-31T19:36:11.867Z,27.90
2018-07-31T19:37:48.933Z,27.67
2018-07-31T19:38:48.894Z,27.97
2018-07-31T19:39:48.882Z,28.22
2018-07-31T19:40:48.870Z,28.31
2018-07-31T19:41:48.927Z,28.32
2018-07-31T19:42:48.852Z,28.29
2018-07-31T19:43:48.837Z,28.20
2018-07-31T19:44:48.835Z,28.11
2018-07-31T19:45:48.856Z,28.00
2018-07-31T19:46:48.812Z,27.90
2018-07-31T19:47:48.794Z,27.82
2018-07-31T19:48:48.783Z,27.75
2018-07-31T19:49:48.771Z,27.67
2018-07-31T19:50:48.761Z,27.61
2018-07-31T19:51:48.750Z,27.55
2018-07-31T19:52:48.741Z,27.50
2018-07-31T19:53:48.731Z,27.44
2018-07-31T19:54:48.771Z,27.38
2018-07-31T19:55:48.709Z,27.35
2018-07-31T19:56:48.697Z,27.29
2018-07-31T19:57:48.689Z,27.23
2018-07-31T19:58:53.676Z,27.18
2018-07-31T19:59:48.666Z,27.13
2018-07-31T20:00:48.655Z,27.10
2018-07-31T20:01:48.642Z,27.04
2018-07-31T20:02:48.633Z,27.01
2018-07-31T20:03:48.663Z,26.95
2018-07-31T20:04:48.613Z,26.90
2018-07-31T20:05:48.600Z,26.87
2018-07-31T20:06:48.590Z,26.79
2018-07-31T20:07:48.577Z,26.72
2018-07-31T20:08:48.567Z,26.67
2018-07-31T20:09:48.569Z,26.60
2018-07-31T20:10:48.546Z,26.52
2018-07-31T20:11:48.535Z,26.47
2018-07-31T20:12:48.523Z,26.42
2018-07-31T20:13:48.510Z,26.36
2018-07-31T20:14:48.500Z,26.29
2018-07-31T20:15:48.613Z,26.22
2018-07-31T20:16:48.480Z,26.15
2018-07-31T20:17:48.470Z,26.12
2018-07-31T20:18:48.456Z,26.09
2018-07-31T20:19:48.445Z,26.05
2018-07-31T20:20:48.441Z,26.04
2018-07-31T20:21:48.423Z,26.01
2018-07-31T20:22:48.412Z,25.98
2018-07-31T20:23:48.400Z,26.01
2018-07-31T20:24:48.391Z,26.07
2018-07-31T20:25:48.379Z,26.18
2018-07-31T20:26:48.367Z,26.29
2018-07-31T20:27:48.359Z,26.38
2018-07-31T20:28:48.346Z,26.47
2018-07-31T20:29:48.336Z,26.59
2018-07-31T20:30:48.324Z,26.69
2018-07-31T20:31:48.313Z,26.76
2018-07-31T20:32:48.306Z,26.79
2018-07-31T20:33:48.291Z,26.85
2018-07-31T20:34:48.299Z,26.89
2018-07-31T20:35:48.268Z,26.95
2018-07-31T20:36:48.258Z,27.02
2018-07-31T20:37:48.281Z,27.09
2018-07-31T20:38:48.238Z,27.13
2018-07-31T20:39:48.233Z,27.18
2018-07-31T20:40:48.212Z,27.21
2018-07-31T20:41:48.307Z,27.26
2018-07-31T20:42:48.193Z,27.30
2018-07-31T20:43:48.185Z,27.36
2018-07-31T20:44:48.168Z,27.40
2018-07-31T20:45:48.160Z,27.45
2018-07-31T20:46:48.148Z,27.48
2018-07-31T20:47:48.136Z,27.51
2018-07-31T20:48:48.127Z,27.52
2018-07-31T20:49:48.115Z,27.53
2018-07-31T20:50:48.102Z,27.54
2018-07-31T20:51:48.091Z,27.54
2018-07-31T20:52:48.082Z,27.54
2018-07-31T20:53:48.070Z,27.54
2018-07-31T20:54:48.059Z,27.53
2018-07-31T20:55:48.049Z,27.51
2018-07-31T20:56:48.038Z,27.52
2018-07-31T20:57:48.024Z,27.54
2018-07-31T20:58:48.013Z,27.56
2018-07-31T20:59:48.050Z,27.60
2018-07-31T21:00:47.996Z,27.61
2018-07-31T21:01:47.981Z,27.62
2018-07-31T21:02:47.969Z,27.62
2018-07-31T21:03:48.004Z,27.62
2018-07-31T21:04:47.946Z,27.64
2018-07-31T21:05:47.935Z,27.65
2018-07-31T21:06:47.926Z,27.67
2018-07-31T21:07:47.915Z,27.67
2018-07-31T21:08:47.904Z,27.67
2018-07-31T21:09:47.893Z,27.63
2018-07-31T21:10:47.880Z,27.59
2018-07-31T21:11:47.869Z,27.53
2018-07-31T21:12:47.858Z,27.46
2018-07-31T21:13:47.848Z,27.43
2018-07-31T21:14:47.836Z,27.39
2018-07-31T21:15:47.825Z,27.38
2018-07-31T21:16:47.814Z,27.37
2018-07-31T21:17:47.837Z,27.34
2018-07-31T21:18:47.834Z,27.29
2018-07-31T21:19:47.780Z,27.27
2018-07-31T21:20:47.771Z,27.23
2018-07-31T21:21:47.758Z,27.20
2018-07-31T21:22:47.747Z,27.17
2018-07-31T21:23:47.736Z,27.13
2018-07-31T21:24:47.724Z,27.11
2018-07-31T21:25:47.716Z,27.07
2018-07-31T21:26:47.703Z,27.04
2018-07-31T21:27:47.692Z,27.01
2018-07-31T21:28:47.680Z,26.97
2018-07-31T21:29:47.671Z,26.94
2018-07-31T21:30:47.659Z,26.89
2018-07-31T21:31:47.655Z,26.87
2018-07-31T21:32:47.637Z,26.84
2018-07-31T21:33:47.632Z,26.79
2018-07-31T21:34:47.731Z,26.76
2018-07-31T21:35:47.608Z,26.71
2018-07-31T21:36:47.601Z,26.69
2018-07-31T21:37:47.581Z,26.67
2018-07-31T21:38:47.601Z,26.62
2018-07-31T21:39:47.559Z,26.61
2018-07-31T21:40:47.550Z,26.57
2018-07-31T21:41:47.537Z,26.55
2018-07-31T21:42:47.532Z,26.53
2018-07-31T21:43:47.519Z,26.48
2018-07-31T21:44:47.504Z,26.45
2018-07-31T21:45:47.500Z,26.40
2018-07-31T21:46:47.482Z,26.37
2018-07-31T21:47:47.492Z,26.35
2018-07-31T21:48:47.460Z,26.32
2018-07-31T21:49:47.449Z,26.30
2018-07-31T21:50:47.439Z,26.27
2018-07-31T21:51:47.429Z,26.23
2018-07-31T21:52:47.486Z,26.22
2018-07-31T21:53:47.405Z,26.20
2018-07-31T21:54:47.444Z,26.20
2018-07-31T21:55:47.385Z,26.18
2018-07-31T21:56:47.374Z,26.15
2018-07-31T21:57:47.362Z,26.13
2018-07-31T21:58:47.351Z,26.12
2018-07-31T21:59:47.341Z,26.12
2018-07-31T22:00:47.329Z,26.11
2018-07-31T22:01:47.317Z,26.10
2018-07-31T22:02:47.309Z,26.07
2018-07-31T22:03:47.294Z,26.06
2018-07-31T22:04:47.283Z,26.04
2018-07-31T22:05:47.282Z,26.03
2018-07-31T22:06:47.262Z,26.01
2018-07-31T22:07:47.301Z,25.98
2018-07-31T22:08:47.242Z,25.97
2018-07-31T22:09:47.231Z,25.95
2018-07-31T22:10:47.219Z,25.93
2018-07-31T22:11:47.209Z,25.90
2018-07-31T22:12:47.193Z,25.90
2018-07-31T22:13:47.191Z,25.88
2018-07-31T22:14:47.178Z,25.87
2018-07-31T22:15:47.162Z,25.84
2018-07-31T22:16:47.152Z,25.81
2018-07-31T22:17:47.141Z,25.79
2018-07-31T22:18:47.132Z,25.77
2018-07-31T22:19:47.119Z,25.73
2018-07-31T22:20:47.106Z,25.72
2018-07-31T22:21:47.097Z,25.70
2018-07-31T22:22:47.083Z,25.69
2018-07-31T22:23:47.074Z,25.67
2018-07-31T22:24:47.121Z,25.64
2018-07-31T22:25:47.059Z,25.62
2018-07-31T22:26:47.042Z,25.59
2018-07-31T22:27:47.029Z,25.56
2018-07-31T22:28:47.083Z,25.54
2018-07-31T22:29:47.006Z,25.54
2018-07-31T22:30:46.995Z,25.52
2018-07-31T22:31:46.986Z,25.48
2018-07-31T22:32:46.974Z,25.45
2018-07-31T22:33:46.961Z,25.43
2018-07-31T22:34:46.951Z,25.42
2018-07-31T22:35:46.943Z,25.40
2018-07-31T22:36:46.929Z,25.39
2018-07-31T22:37:46.921Z,25.38
2018-07-31T22:38:46.909Z,25.37
2018-07-31T22:39:46.925Z,25.35
2018-07-31T22:40:46.887Z,25.34
2018-07-31T22:41:46.875Z,25.31
2018-07-31T22:42:46.864Z,25.29
2018-07-31T22:43:46.854Z,25.27
2018-07-31T22:44:46.843Z,25.25
2018-07-31T22:45:46.833Z,25.21
2018-07-31T22:46:46.819Z,25.20
2018-07-31T22:47:46.827Z,25.18
2018-07-31T22:48:46.807Z,25.18
2018-07-31T22:49:46.787Z,25.17
2018-07-31T22:50:46.775Z,25.15
2018-07-31T22:51:46.766Z,25.13
2018-07-31T22:52:46.754Z,25.11
2018-07-31T22:53:46.745Z,25.09
2018-07-31T22:54:46.731Z,25.05
2018-07-31T22:55:46.719Z,25.04
2018-07-31T22:56:46.713Z,25.02
2018-07-31T22:57:46.704Z,25.01
2018-07-31T22:58:46.688Z,24.98
2018-07-31T22:59:46.675Z,24.96
2018-07-31T23:00:46.666Z,24.94
2018-07-31T23:01:46.653Z,24.92
2018-07-31T23:02:46.645Z,24.89
2018-07-31T23:03:46.631Z,24.87
2018-07-31T23:04:46.620Z,24.86
2018-07-31T23:05:46.609Z,24.85
2018-07-31T23:06:46.600Z,24.84
2018-07-31T23:07:46.589Z,24.84
2018-07-31T23:08:46.576Z,24.82
2018-07-31T23:09:46.566Z,24.80
2018-07-31T23:10:46.562Z,24.79
2018-07-31T23:11:46.551Z,24.78
2018-07-31T23:12:46.531Z,24.76
2018-07-31T23:13:46.520Z,24.73
2018-07-31T23:14:46.507Z,24.72
2018-07-31T23:15:46.497Z,24.71
2018-07-31T23:16:46.484Z,24.69
2018-07-31T23:17:46.474Z,24.67
2018-07-31T23:18:46.463Z,24.64
2018-07-31T23:19:46.450Z,24.63
2018-07-31T23:20:46.458Z,24.62
2018-07-31T23:21:46.429Z,24.62
2018-07-31T23:22:46.419Z,24.62
2018-07-31T23:23:46.405Z,24.59
2018-07-31T23:24:46.392Z,24.56
2018-07-31T23:25:46.381Z,24.54
2018-07-31T23:26:46.370Z,24.53
2018-07-31T23:27:46.357Z,24.53
2018-07-31T23:28:46.351Z,24.52
2018-07-31T23:29:46.337Z,24.52
2018-07-31T23:30:46.331Z,24.51
2018-07-31T23:31:46.314Z,24.50
2018-07-31T23:32:46.304Z,24.48
2018-07-31T23:33:46.293Z,24.47
2018-07-31T23:34:46.280Z,24.47
2018-07-31T23:35:46.270Z,24.46
2018-07-31T23:36:46.259Z,24.45
2018-07-31T23:37:46.313Z,24.43
2018-07-31T23:38:46.236Z,24.40
2018-07-31T23:39:46.226Z,24.38
2018-07-31T23:40:46.239Z,24.37
2018-07-31T23:41:46.206Z,24.34
2018-07-31T23:42:46.190Z,24.31
2018-07-31T23:43:46.180Z,24.30
2018-07-31T23:44:46.168Z,24.29
2018-07-31T23:45:46.155Z,24.28
2018-07-31T23:46:46.149Z,24.26
2018-07-31T23:47:46.133Z,24.25
2018-07-31T23:48:46.135Z,24.23
2018-07-31T23:49:46.110Z,24.21
2018-07-31T23:50:46.175Z,24.20
2018-07-31T23:51:46.088Z,24.20
2018-07-31T23:52:46.076Z,24.19
2018-07-31T23:53:46.063Z,24.17
2018-07-31T23:54:46.053Z,24.14
2018-07-31T23:55:46.040Z,24.12
2018-07-31T23:56:46.031Z,24.12
2018-07-31T23:57:46.019Z,24.11
2018-07-31T23:58:46.009Z,24.11
2018-07-31T23:59:45.996Z,24.10
